Time;durP1;ratioP1;P1;durP2;ratioP2;P2;SDS_P1;SDS_P2;PMS_P1;PMS_P2;Temp;Humidity;BMP_temperature;BMP_pressure;BME280_temperature;BME280_humidity;BME280_pressure;Samples;Min_cycle;Max_cycle;Signal;HPM_P1;HPM_P2
2022/05/20 00:02:33;;;;;;;;;;;;;;;23.70;44.38;96390.16;10334820;28;1849;-63
2022/05/20 00:07:35;;;;;;;;;;;;;;;23.70;44.18;96393.56;10336565;28;2069;-64
2022/05/20 00:12:36;;;;;;;;;;;;;;;23.69;44.11;96381.41;10328613;28;2365;-63
2022/05/20 00:17:37;;;;;;;;;;;;;;;23.70;44.28;96385.63;10345614;28;2133;-64
2022/05/20 00:22:38;;;;;;;;;;;;;;;23.71;44.17;96394.38;10341116;28;1983;-64
2022/05/20 00:27:38;;;;;;;;;;;;;;;23.70;44.18;96392.81;10345121;28;1974;-64
2022/05/20 00:32:40;;;;;;;;;;;;;;;23.69;44.28;96378.78;10352039;28;1854;-64
2022/05/20 00:37:41;;;;;;;;;;;;;;;23.70;44.19;96379.56;10361978;28;1993;-64
2022/05/20 00:42:41;;;;;;;;;;;;;;;23.69;44.09;96375.31;10360689;28;1976;-64
2022/05/20 00:47:42;;;;;;;;;;;;;;;23.69;44.09;96356.78;10356096;28;1881;-64
2022/05/20 00:52:43;;;;;;;;;;;;;;;23.68;44.15;96353.34;10358296;28;1907;-64
2022/05/20 00:57:45;;;;;;;;;;;;;;;23.68;44.07;96358.66;10349108;28;2175;-63
2022/05/20 01:02:46;;;;;;;;;;;;;;;23.67;44.43;96349.16;10346994;28;1962;-64
2022/05/20 01:07:47;;;;;;;;;;;;;;;23.68;44.48;96345.41;10345918;28;1959;-64
2022/05/20 01:12:49;;;;;;;;;;;;;;;23.67;44.34;96338.56;10353605;28;1848;-64
2022/05/20 01:17:51;;;;;;;;;;;;;;;23.67;44.12;96338.56;10358652;28;2008;-65
2022/05/20 01:22:58;;;;;;;;;;;;;;;23.65;43.94;96334.59;10350348;28;2270;-63
2022/05/20 01:28:03;;;;;;;;;;;;;;;23.65;44.29;96329.31;10344557;28;2002;-64
2022/05/20 01:33:04;;;;;;;;;;;;;;;23.63;43.82;96329.59;10352491;28;1921;-64
2022/05/20 01:38:04;;;;;;;;;;;;;;;23.63;44.06;96332.25;10332513;28;1990;-64
2022/05/20 01:43:07;;;;;;;;;;;;;;;23.63;44.08;96319.00;10347051;28;2244;-64
2022/05/20 01:48:19;;;;;;;;;;;;;;;23.63;43.88;96313.72;10327772;28;1955;-64
2022/05/20 01:53:23;;;;;;;;;;;;;;;23.63;43.74;96311.06;10347380;28;1972;-64
2022/05/20 01:58:29;;;;;;;;;;;;;;;23.61;43.63;96299.97;10345227;28;1918;-64
2022/05/20 02:03:30;;;;;;;;;;;;;;;23.60;43.65;96295.72;10320683;28;1886;-64
2022/05/20 02:08:34;;;;;;;;;;;;;;;23.61;43.74;96281.44;10357005;28;2015;-64
2022/05/20 02:13:35;;;;;;;;;;;;;;;23.61;43.78;96278.00;10323709;28;2027;-64
2022/05/20 02:18:49;;;;;;;;;;;;;;;23.62;43.44;96276.94;10326455;28;1981;-65
2022/05/20 02:23:54;;;;;;;;;;;;;;;23.61;43.63;96272.72;10334982;28;1953;-64
2022/05/20 02:29:01;;;;;;;;;;;;;;;23.60;43.71;96271.91;10336218;28;1965;-64
2022/05/20 02:34:01;;;;;;;;;;;;;;;23.59;43.58;96267.72;10336918;28;1939;-64
2022/05/20 02:39:03;;;;;;;;;;;;;;;23.60;43.59;96271.13;10342614;28;1973;-63
2022/05/20 02:44:03;;;;;;;;;;;;;;;23.59;43.17;96266.91;10341364;28;1924;-64
2022/05/20 02:49:03;;;;;;;;;;;;;;;23.59;43.49;96270.34;10357726;28;1895;-64
2022/05/20 02:54:04;;;;;;;;;;;;;;;23.60;43.47;96274.56;10336914;28;1984;-64
2022/05/20 03:04:24;;;;;;;;;;;;;;;23.59;43.41;96266.91;10354330;28;1926;-64
2022/05/20 03:09:25;;;;;;;;;;;;;;;23.58;43.42;96268.75;10336105;28;1856;-64
2022/05/20 03:14:25;;;;;;;;;;;;;;;23.58;43.07;96267.97;10342418;28;1899;-64
2022/05/20 03:19:30;;;;;;;;;;;;;;;23.58;43.29;96268.75;10335928;28;1956;-64
2022/05/20 03:24:30;;;;;;;;;;;;;;;23.56;43.56;96262.97;10355931;28;2200;-64
2022/05/20 03:29:32;;;;;;;;;;;;;;;23.57;43.39;96258.47;10356192;28;1987;-64
2022/05/20 03:34:33;;;;;;;;;;;;;;;23.56;43.66;96265.59;10353466;28;2110;-64
2022/05/20 03:39:35;;;;;;;;;;;;;;;23.57;43.37;96267.19;10333873;28;1920;-64
2022/05/20 03:44:36;;;;;;;;;;;;;;;23.56;43.45;96264.81;10357192;28;1915;-64
2022/05/20 03:49:36;;;;;;;;;;;;;;;23.56;43.17;96270.91;10348975;28;1919;-64
2022/05/20 03:54:36;;;;;;;;;;;;;;;23.56;43.59;96265.59;10336935;28;1927;-63
2022/05/20 03:59:37;;;;;;;;;;;;;;;23.58;43.55;96266.13;10345751;28;1922;-64
2022/05/20 04:04:38;;;;;;;;;;;;;;;23.58;43.46;96267.97;10351207;28;2038;-65
2022/05/20 04:09:39;;;;;;;;;;;;;;;23.21;43.90;96268.53;10369707;28;1908;-65
2022/05/20 04:14:41;;;;;;;;;;;;;;;22.80;44.78;96277.84;10372192;28;2089;-65
2022/05/20 04:19:42;;;;;;;;;;;;;;;22.48;45.71;96280.94;10371424;28;1963;-65
2022/05/20 04:24:42;;;;;;;;;;;;;;;22.34;46.30;96277.31;10363716;28;1879;-63
2022/05/20 04:29:43;;;;;;;;;;;;;;;22.29;46.14;96280.78;10355304;28;1970;-63
2022/05/20 04:34:44;;;;;;;;;;;;;;;22.14;46.72;96282.66;10346546;28;2010;-64
2022/05/20 04:39:45;;;;;;;;;;;;;;;22.08;46.89;96286.38;10330522;28;2036;-64
2022/05/20 04:50:04;;;;;;;;;;;;;;;22.27;46.64;96296.09;10344986;28;1952;-63
2022/05/20 04:55:05;;;;;;;;;;;;;;;22.50;45.91;96295.44;10330933;28;1970;-64
2022/05/20 05:00:11;;;;;;;;;;;;;;;22.67;45.80;96293.25;10340696;28;1978;-65
2022/05/20 05:05:14;;;;;;;;;;;;;;;22.81;45.82;96293.47;10358756;28;1825;-63
2022/05/20 05:10:15;;;;;;;;;;;;;;;22.90;45.45;96297.06;10359664;28;1939;-63
2022/05/20 05:15:15;;;;;;;;;;;;;;;22.98;45.69;96295.72;10338009;28;1908;-63
2022/05/20 05:20:17;;;;;;;;;;;;;;;23.07;44.97;96304.63;10359044;28;1951;-64
2022/05/20 05:25:18;;;;;;;;;;;;;;;23.17;44.51;96296.63;10344907;28;1876;-63
2022/05/20 05:30:18;;;;;;;;;;;;;;;23.24;44.33;96300.53;10336831;28;1852;-64
2022/05/20 05:35:19;;;;;;;;;;;;;;;23.25;44.06;96290.72;10356952;28;2013;-60
2022/05/20 05:40:24;;;;;;;;;;;;;;;23.30;44.27;96291.50;10353090;28;1918;-63
2022/05/20 05:45:25;;;;;;;;;;;;;;;23.35;44.09;96288.03;10339586;28;1931;-64
2022/05/20 05:50:26;;;;;;;;;;;;;;;23.39;44.23;96291.69;10335226;28;2009;-62
2022/05/20 05:55:27;;;;;;;;;;;;;;;23.38;44.50;96280.34;10343155;28;1907;-63
2022/05/20 06:00:27;;;;;;;;;;;;;;;23.41;44.37;96287.72;10365108;28;1976;-63
2022/05/20 06:05:28;;;;;;;;;;;;;;;23.44;44.57;96291.66;10336952;28;1996;-63
2022/05/20 06:10:29;;;;;;;;;;;;;;;23.43;44.45;96298.78;10339414;28;1872;-64
2022/05/20 06:15:29;;;;;;;;;;;;;;;23.40;44.53;96296.72;10341002;28;1963;-64
2022/05/20 06:20:29;;;;;;;;;;;;;;;23.42;44.65;96294.59;10361631;28;1973;-64
2022/05/20 06:25:30;;;;;;;;;;;;;;;23.45;44.76;96295.91;10356805;28;1923;-65
2022/05/20 06:30:32;;;;;;;;;;;;;;;23.45;44.50;96291.38;10352562;28;1919;-64
2022/05/20 06:40:51;;;;;;;;;;;;;;;23.49;44.66;96288.19;10333578;28;1936;-62
2022/05/20 06:45:52;;;;;;;;;;;;;;;23.49;44.63;96288.97;10352155;28;1864;-64
2022/05/20 06:50:53;;;;;;;;;;;;;;;23.51;44.97;96292.13;10359088;28;2355;-63
2022/05/20 06:55:53;;;;;;;;;;;;;;;23.52;44.47;96288.41;10336861;28;1927;-63
2022/05/20 07:00:54;;;;;;;;;;;;;;;23.54;44.35;96283.63;10354513;28;1973;-64
2022/05/20 07:05:55;;;;;;;;;;;;;;;23.55;44.42;96284.41;10352252;28;1967;-65
2022/05/20 07:10:56;;;;;;;;;;;;;;;23.56;44.13;96278.03;10331790;28;1872;-65
2022/05/20 07:15:57;;;;;;;;;;;;;;;23.56;44.16;96281.47;10355849;28;2059;-64
2022/05/20 07:20:57;;;;;;;;;;;;;;;23.57;44.36;96277.00;10332184;28;1990;-63
2022/05/20 07:25:58;;;;;;;;;;;;;;;23.57;44.02;96272.50;10336711;28;1930;-65
2022/05/20 07:30:58;;;;;;;;;;;;;;;23.60;44.17;96279.06;10338032;28;2032;-63
2022/05/20 07:35:59;;;;;;;;;;;;;;;23.60;44.07;96277.22;10340746;28;1969;-63
2022/05/20 07:41:00;;;;;;;;;;;;;;;23.61;44.47;96273.50;10333988;28;1998;-64
2022/05/20 07:46:00;;;;;;;;;;;;;;;23.61;44.50;96275.34;10363801;28;1909;-64
2022/05/20 07:51:02;;;;;;;;;;;;;;;23.62;44.08;96266.38;10352270;28;1907;-64
2022/05/20 07:56:03;;;;;;;;;;;;;;;23.63;44.33;96265.28;10353316;28;2130;-65
2022/05/20 08:01:04;;;;;;;;;;;;;;;23.63;44.31;96271.38;10350645;28;1959;-64
2022/05/20 08:06:05;;;;;;;;;;;;;;;23.60;44.03;96266.63;10352782;28;1809;-64
2022/05/20 08:11:05;;;;;;;;;;;;;;;23.60;44.17;96266.63;10337453;28;2039;-65
2022/05/20 08:16:05;;;;;;;;;;;;;;;23.60;44.50;96263.97;10346382;28;1982;-65
2022/05/20 08:21:06;;;;;;;;;;;;;;;23.63;44.55;96260.00;10334158;28;1981;-64
2022/05/20 08:26:06;;;;;;;;;;;;;;;23.62;44.57;96258.44;10335475;28;1832;-64
2022/05/20 08:31:06;;;;;;;;;;;;;;;23.64;44.12;96251.75;10336480;28;1785;-65
2022/05/20 08:36:07;;;;;;;;;;;;;;;23.69;43.94;96237.69;10345321;28;1768;-63
2022/05/20 08:41:07;;;;;;;;;;;;;;;23.71;44.17;96235.56;10333974;28;2017;-63
2022/05/20 08:46:07;;;;;;;;;;;;;;;23.72;43.84;96231.84;10332220;28;1821;-62
2022/05/20 08:51:08;;;;;;;;;;;;;;;23.70;44.20;96218.88;10328939;28;1800;-64
2022/05/20 08:56:10;;;;;;;;;;;;;;;23.71;43.99;96219.66;10343832;28;1881;-64
2022/05/20 09:01:10;;;;;;;;;;;;;;;23.72;43.76;96219.38;10342923;28;2154;-65
2022/05/20 09:06:12;;;;;;;;;;;;;;;23.72;44.02;96216.72;10354973;28;1859;-64
2022/05/20 09:11:13;;;;;;;;;;;;;;;23.72;43.91;96205.38;10336760;28;1880;-64
2022/05/20 09:16:35;;;;;;;;;;;;;;;23.73;43.37;96206.94;10357001;28;1860;-64
2022/05/20 09:21:42;;;;;;;;;;;;;;;23.73;43.64;96207.72;10346787;28;1910;-62
2022/05/20 09:26:46;;;;;;;;;;;;;;;23.75;43.43;96204.78;10356886;28;1828;-65
2022/05/20 09:31:49;;;;;;;;;;;;;;;23.74;43.64;96190.00;10346289;28;1944;-64
2022/05/20 09:36:55;;;;;;;;;;;;;;;23.75;43.56;96192.34;10328571;28;1910;-63
2022/05/20 09:41:56;;;;;;;;;;;;;;;23.75;43.34;96186.25;10355958;28;1836;-62
2022/05/20 09:46:59;;;;;;;;;;;;;;;23.76;43.26;96172.75;10339610;28;1822;-64
2022/05/20 09:52:00;;;;;;;;;;;;;;;23.76;43.33;96178.03;10357262;28;1824;-65
2022/05/20 09:57:10;;;;;;;;;;;;;;;23.77;43.66;96166.38;10356339;28;1931;-63
2022/05/20 10:02:19;;;;;;;;;;;;;;;23.77;43.23;96153.16;10352673;28;1892;-64
2022/05/20 10:07:27;;;;;;;;;;;;;;;23.78;43.23;96146.00;10353432;28;1852;-63
2022/05/20 10:12:31;;;;;;;;;;;;;;;23.78;43.26;96141.47;10334210;28;1779;-64
2022/05/20 10:17:52;;;;;;;;;;;;;;;23.77;43.18;96139.91;10340801;28;1910;-63
2022/05/20 10:22:57;;;;;;;;;;;;;;;23.80;43.37;96135.91;10336006;28;1837;-63
2022/05/20 10:33:41;;;;;;;;;;;;;;;23.81;43.35;96126.88;10334817;28;1821;-63
2022/05/20 10:38:55;;;;;;;;;;;;;;;23.83;43.55;96111.50;10354840;28;1968;-63
2022/05/20 10:49:31;;;;;;;;;;;;;;;23.83;43.37;96099.06;10340598;28;1875;-63
2022/05/20 10:54:50;;;;;;;;;;;;;;;23.85;43.55;96104.88;10336148;28;1847;-64
2022/05/20 10:59:50;;;;;;;;;;;;;;;23.86;43.43;96090.56;10348099;28;1981;-64
2022/05/20 11:04:58;;;;;;;;;;;;;;;23.82;43.77;96075.53;10337139;28;1840;-64
2022/05/20 11:09:59;;;;;;;;;;;;;;;23.83;43.82;96072.59;10328861;28;1820;-62
2022/05/20 11:15:12;;;;;;;;;;;;;;;23.81;43.86;96073.94;10342970;28;1852;-64
2022/05/20 11:20:15;;;;;;;;;;;;;;;23.86;43.65;96069.38;10345904;28;2039;-64
2022/05/20 11:25:28;;;;;;;;;;;;;;;23.87;43.40;96055.06;10330788;28;1966;-64
2022/05/20 11:30:53;;;;;;;;;;;;;;;23.90;43.38;96051.84;10353999;28;2260;-64
2022/05/20 11:36:02;;;;;;;;;;;;;;;23.89;43.54;96044.97;10337345;28;1781;-64
2022/05/20 11:41:08;;;;;;;;;;;;;;;23.91;43.39;96039.38;10352654;28;1906;-62
2022/05/20 11:46:19;;;;;;;;;;;;;;;23.92;43.52;96033.81;10339773;28;1804;-64
2022/05/20 11:51:38;;;;;;;;;;;;;;;23.92;43.43;96031.16;10339581;28;1821;-64
2022/05/20 11:56:43;;;;;;;;;;;;;;;23.93;43.30;96027.44;10348448;28;1768;-63
2022/05/20 12:01:44;;;;;;;;;;;;;;;23.94;43.43;96017.63;10333386;28;1976;-64
2022/05/20 12:06:45;;;;;;;;;;;;;;;23.95;43.45;96011.25;10316811;28;1901;-65
2022/05/20 12:11:46;;;;;;;;;;;;;;;23.95;43.42;96004.09;10320298;28;1804;-64
2022/05/20 12:17:00;;;;;;;;;;;;;;;23.96;43.71;95992.44;10326556;28;1910;-62
2022/05/20 12:27:22;;;;;;;;;;;;;;;23.96;43.49;95979.22;10338671;28;1869;-61
2022/05/20 12:32:23;;;;;;;;;;;;;;;23.96;43.78;95976.56;10352542;28;1785;-64
2022/05/20 12:37:41;;;;;;;;;;;;;;;23.97;43.26;95970.19;10338350;28;1910;-65
2022/05/20 12:42:46;;;;;;;;;;;;;;;23.97;43.31;95959.59;10350930;28;1837;-64
2022/05/20 12:47:46;;;;;;;;;;;;;;;23.97;43.31;95945.56;10345382;28;1781;-64
2022/05/20 12:52:48;;;;;;;;;;;;;;;23.99;43.53;95933.59;10346760;28;1889;-64
2022/05/20 12:57:54;;;;;;;;;;;;;;;23.97;43.56;95927.03;10339704;28;1950;-64
2022/05/20 13:02:55;;;;;;;;;;;;;;;23.97;43.69;95914.56;10346748;28;1859;-62
2022/05/20 13:07:55;;;;;;;;;;;;;;;23.97;43.67;95913.78;10320890;28;1859;-64
2022/05/20 13:13:02;;;;;;;;;;;;;;;23.98;43.80;95900.28;10331591;28;1716;-64
2022/05/20 13:18:04;;;;;;;;;;;;;;;23.99;44.09;95893.88;10368342;28;1955;-63
2022/05/20 13:23:05;;;;;;;;;;;;;;;24.01;43.81;95897.03;10373543;28;1871;-61
2022/05/20 13:28:05;;;;;;;;;;;;;;;24.02;44.04;95880.06;10363840;28;1824;-64
2022/05/20 13:33:06;;;;;;;;;;;;;;;24.02;43.74;95874.78;10362673;28;1778;-64
2022/05/20 13:38:07;;;;;;;;;;;;;;;24.03;43.67;95841.94;10348704;28;1959;-64
2022/05/20 13:43:11;;;;;;;;;;;;;;;24.02;43.65;95829.75;10332053;28;1854;-62
2022/05/20 13:53:36;;;;;;;;;;;;;;;24.03;43.91;95818.09;10326201;28;1830;-63
2022/05/20 13:58:39;;;;;;;;;;;;;;;24.07;43.75;95797.16;10327360;28;2126;-65
2022/05/20 14:03:41;;;;;;;;;;;;;;;24.05;43.86;95786.81;10358571;28;1939;-63
2022/05/20 14:08:42;;;;;;;;;;;;;;;24.07;43.66;95792.59;10358542;28;1827;-64
2022/05/20 14:13:44;;;;;;;;;;;;;;;24.07;43.49;95779.38;10347562;28;1879;-64
2022/05/20 14:18:46;;;;;;;;;;;;;;;24.04;44.26;95777.31;10336659;28;1902;-64
2022/05/20 14:23:54;;;;;;;;;;;;;;;24.07;44.25;95768.78;10338085;28;1930;-64
2022/05/20 14:28:56;;;;;;;;;;;;;;;24.10;44.59;95767.41;10338778;28;1782;-65
2022/05/20 14:34:09;;;;;;;;;;;;;;;24.14;44.79;95753.28;10345374;28;1801;-65
2022/05/20 14:39:11;;;;;;;;;;;;;;;24.16;44.88;95745.81;10322520;28;1994;-64
2022/05/20 14:44:14;;;;;;;;;;;;;;;24.15;45.16;95749.53;10353185;28;1980;-64
2022/05/20 14:49:15;;;;;;;;;;;;;;;24.15;45.59;95738.94;10354255;28;2150;-62
2022/05/20 14:54:15;;;;;;;;;;;;;;;24.18;45.43;95727.78;10347435;28;1905;-64
2022/05/20 14:59:29;;;;;;;;;;;;;;;24.22;45.88;95723.44;10374009;28;1913;-64
2022/05/20 15:04:31;;;;;;;;;;;;;;;24.23;46.02;95721.59;10376148;28;2127;-64
2022/05/20 15:09:32;;;;;;;;;;;;;;;24.24;45.90;95708.03;10354110;28;1850;-64
2022/05/20 15:14:33;;;;;;;;;;;;;;;24.34;46.80;95714.97;10348350;28;2131;-63
2022/05/20 15:19:33;;;;;;;;;;;;;;;24.33;46.90;95705.47;10332312;28;2111;-64
2022/05/20 15:24:34;;;;;;;;;;;;;;;24.24;46.18;95699.31;10337067;28;2186;-64
2022/05/20 15:29:35;;;;;;;;;;;;;;;24.31;45.84;95693.59;10347057;28;1879;-63
2022/05/20 15:34:54;;;;;;;;;;;;;;;24.29;45.94;95695.78;10357458;28;2135;-63
2022/05/20 15:40:00;;;;;;;;;;;;;;;24.30;45.95;95678.81;10334021;28;1910;-63
2022/05/20 15:45:00;;;;;;;;;;;;;;;24.30;46.01;95657.63;10355378;28;1899;-63
2022/05/20 15:50:01;;;;;;;;;;;;;;;24.29;45.89;95653.38;10353788;28;2027;-63
2022/05/20 15:55:03;;;;;;;;;;;;;;;24.32;45.76;95635.03;10350689;28;1671;-63
2022/05/20 16:00:04;;;;;;;;;;;;;;;24.30;45.78;95621.28;10334960;28;1955;-63
2022/05/20 16:05:17;;;;;;;;;;;;;;;24.30;45.78;95608.03;10342077;28;1863;-63
2022/05/20 16:10:18;;;;;;;;;;;;;;;24.29;45.78;95585.31;10331674;28;1797;-63
2022/05/20 16:15:20;;;;;;;;;;;;;;;24.28;45.54;95573.13;10296276;28;1844;-62
2022/05/20 16:20:20;;;;;;;;;;;;;;;24.28;45.76;95554.59;10351255;28;1910;-61
2022/05/20 16:25:20;;;;;;;;;;;;;;;24.31;45.45;95534.66;10348669;28;1859;-62
2022/05/20 16:30:22;;;;;;;;;;;;;;;24.28;45.58;95533.41;10348496;28;1788;-63
2022/05/20 16:35:23;;;;;;;;;;;;;;;24.28;45.54;95544.00;10355115;28;1852;-63
2022/05/20 16:40:24;;;;;;;;;;;;;;;24.29;45.40;95552.72;10354430;28;1969;-63
2022/05/20 16:45:24;;;;;;;;;;;;;;;24.28;45.33;95553.81;10338689;28;1943;-63
2022/05/20 16:50:26;;;;;;;;;;;;;;;24.29;45.16;95556.16;10338484;28;1792;-63
2022/05/20 16:55:27;;;;;;;;;;;;;;;24.29;45.36;95560.66;10346875;28;1895;-63
2022/05/20 17:05:46;;;;;;;;;;;;;;;24.30;45.09;95559.59;10355701;28;1800;-62
2022/05/20 17:10:48;;;;;;;;;;;;;;;24.29;45.02;95548.22;10334765;28;2355;-63
2022/05/20 17:15:48;;;;;;;;;;;;;;;24.29;45.39;95548.22;10342531;28;1760;-63
2022/05/20 17:20:48;;;;;;;;;;;;;;;24.30;45.29;95543.72;10339202;28;1908;-63
2022/05/20 17:25:54;;;;;;;;;;;;;;;24.29;44.98;95537.63;10351581;28;1849;-62
2022/05/20 17:30:54;;;;;;;;;;;;;;;24.32;45.06;95538.91;10316188;28;1800;-63
2022/05/20 17:35:56;;;;;;;;;;;;;;;24.30;45.30;95523.28;10360259;28;1855;-62
2022/05/20 17:40:57;;;;;;;;;;;;;;;24.32;44.90;95523.00;10342481;28;2054;-64
2022/05/20 17:45:57;;;;;;;;;;;;;;;24.30;43.59;95533.13;10335889;28;2017;-65
2022/05/20 17:50:57;;;;;;;;;;;;;;;24.31;42.07;95534.66;10337829;28;1839;-64
2022/05/20 17:55:59;;;;;;;;;;;;;;;24.26;42.35;95532.91;10339887;28;1904;-65
2022/05/20 18:00:59;;;;;;;;;;;;;;;24.25;42.65;95532.13;10341154;28;1963;-65
2022/05/20 18:06:00;;;;;;;;;;;;;;;24.31;43.27;95551.34;10334087;28;2231;-64
2022/05/20 18:11:00;;;;;;;;;;;;;;;24.38;44.38;95562.28;10339150;28;1944;-60
2022/05/20 18:16:01;;;;;;;;;;;;;;;24.44;44.11;95600.81;10354600;28;1887;-55
2022/05/20 18:21:01;;;;;;;;;;;;;;;24.55;43.42;95612.75;10338729;28;1950;-61
2022/05/20 18:26:03;;;;;;;;;;;;;;;24.64;43.05;95618.13;10350082;28;2033;-63
2022/05/20 18:31:04;;;;;;;;;;;;;;;24.66;42.50;95611.44;10355966;28;2042;-64
2022/05/20 18:41:23;;;;;;;;;;;;;;;24.71;42.08;95608.66;10353987;28;1959;-61
2022/05/20 18:46:24;;;;;;;;;;;;;;;24.74;41.59;95612.59;10366133;28;1931;-64
2022/05/20 18:51:24;;;;;;;;;;;;;;;24.72;41.79;95599.63;10341639;28;1987;-57
2022/05/20 18:56:25;;;;;;;;;;;;;;;24.77;41.72;95606.69;10342412;28;2008;-52
2022/05/20 19:01:25;;;;;;;;;;;;;;;24.76;41.33;95597.94;10338363;28;2018;-53
2022/05/20 19:06:25;;;;;;;;;;;;;;;24.77;41.30;95610.09;10340869;28;1929;-64
2022/05/20 19:11:26;;;;;;;;;;;;;;;24.80;41.17;95598.13;10333315;28;1897;-54
2022/05/20 19:16:27;;;;;;;;;;;;;;;24.81;41.18;95587.22;10334830;28;2076;-61
2022/05/20 19:21:27;;;;;;;;;;;;;;;24.79;41.44;95599.97;10342439;28;1926;-64
2022/05/20 19:26:28;;;;;;;;;;;;;;;24.76;41.28;95611.22;10354874;28;1947;-64
2022/05/20 19:31:29;;;;;;;;;;;;;;;24.81;41.89;95631.50;10338353;28;1983;-67
2022/05/20 19:36:29;;;;;;;;;;;;;;;24.84;41.43;95644.94;10349917;28;1972;-66
2022/05/20 19:41:30;;;;;;;;;;;;;;;24.86;41.60;95652.59;10351219;28;1993;-57
2022/05/20 19:46:31;;;;;;;;;;;;;;;24.86;41.74;95661.31;10351706;28;1874;-65
2022/05/20 19:51:31;;;;;;;;;;;;;;;24.91;41.50;95671.03;10356722;28;2074;-59
2022/05/20 19:56:31;;;;;;;;;;;;;;;24.92;41.31;95693.78;10350013;28;1872;-64
2022/05/20 20:01:33;;;;;;;;;;;;;;;24.93;40.83;95695.38;10341434;28;2169;-67
2022/05/20 20:06:34;;;;;;;;;;;;;;;24.93;40.90;95690.06;10342337;28;2185;-54
2022/05/20 20:11:34;;;;;;;;;;;;;;;24.90;41.00;95704.72;10362677;28;1888;-62
2022/05/20 20:16:35;;;;;;;;;;;;;;;24.89;40.90;95697.81;10336178;28;1946;-63
2022/05/20 20:26:55;;;;;;;;;;;;;;;24.84;40.74;95708.56;10344377;28;1972;-63
2022/05/20 20:31:55;;;;;;;;;;;;;;;24.83;41.13;95722.13;10365157;28;2120;-62
2022/05/20 20:36:56;;;;;;;;;;;;;;;24.82;41.59;95736.47;10364502;28;1987;-63
2022/05/20 20:41:56;;;;;;;;;;;;;;;24.79;41.90;95742.38;10356886;28;1990;-60
2022/05/20 20:46:57;;;;;;;;;;;;;;;24.79;42.63;95758.28;10354558;28;1944;-62
2022/05/20 20:51:58;;;;;;;;;;;;;;;24.75;42.75;95767.94;10362013;28;2016;-62
2022/05/20 20:56:58;;;;;;;;;;;;;;;24.77;42.83;95771.81;10343245;28;1941;-63
2022/05/20 21:01:59;;;;;;;;;;;;;;;24.78;43.35;95796.47;10352933;28;1984;-63
2022/05/20 21:07:00;;;;;;;;;;;;;;;24.75;43.68;95805.03;10357738;28;1943;-59
2022/05/20 21:12:19;;;;;;;;;;;;;;;24.75;43.82;95813.00;10354936;28;1924;-59
2022/05/20 21:17:20;;;;;;;;;;;;;;;24.71;44.02;95809.34;10359290;28;2030;-59
2022/05/20 21:22:22;;;;;;;;;;;;;;;24.75;43.71;95794.44;10365613;28;1888;-62
2022/05/20 21:27:23;;;;;;;;;;;;;;;24.72;44.15;95789.69;10357840;28;1910;-62
2022/05/20 21:32:24;;;;;;;;;;;;;;;24.68;44.24;95776.25;10358386;28;1820;-61
2022/05/20 21:37:24;;;;;;;;;;;;;;;24.68;43.84;95780.75;10372504;28;1906;-59
2022/05/20 21:42:25;;;;;;;;;;;;;;;24.66;43.62;95775.78;10370873;28;1757;-62
2022/05/20 21:47:25;;;;;;;;;;;;;;;24.69;43.70;95779.69;10357908;28;1785;-62
2022/05/20 21:52:26;;;;;;;;;;;;;;;24.67;43.62;95784.47;10355212;28;1832;-63
2022/05/20 21:57:27;;;;;;;;;;;;;;;24.66;43.39;95775.78;10347859;28;1881;-60
2022/05/20 22:13:07;;;;;;;;;;;;;;;24.61;43.05;95785.69;10342159;28;2254;-62
2022/05/20 22:18:08;;;;;;;;;;;;;;;24.62;43.30;95777.44;10335860;28;1963;-60
2022/05/20 22:23:09;;;;;;;;;;;;;;;24.66;43.22;95774.97;10334250;28;1810;-61
2022/05/20 22:28:09;;;;;;;;;;;;;;;24.62;43.38;95766.84;10355451;28;2232;-61
2022/05/20 22:33:10;;;;;;;;;;;;;;;24.62;43.32;95774.81;10353677;28;2046;-61
2022/05/20 22:38:10;;;;;;;;;;;;;;;24.64;43.45;95771.84;10352233;28;1922;-58
2022/05/20 22:43:11;;;;;;;;;;;;;;;24.64;43.29;95774.50;10353018;28;1967;-61
2022/05/20 22:48:11;;;;;;;;;;;;;;;24.64;43.09;95779.78;10351005;28;1895;-60
2022/05/20 22:53:11;;;;;;;;;;;;;;;24.61;43.14;95783.03;10352470;28;1880;-59
2022/05/20 22:58:14;;;;;;;;;;;;;;;24.60;43.10;95795.50;10353103;28;2174;-59
2022/05/20 23:03:14;;;;;;;;;;;;;;;24.65;43.06;95821.09;10355306;28;1875;-62
2022/05/20 23:08:14;;;;;;;;;;;;;;;24.66;43.12;95855.28;10353164;28;1896;-62
2022/05/20 23:13:16;;;;;;;;;;;;;;;24.68;43.04;95871.69;10355342;28;1827;-62
2022/05/20 23:18:17;;;;;;;;;;;;;;;24.69;42.82;95891.78;10322566;28;2040;-60
2022/05/20 23:23:19;;;;;;;;;;;;;;;24.70;42.88;95897.88;10317314;28;1898;-59
2022/05/20 23:28:19;;;;;;;;;;;;;;;24.57;44.54;95910.06;10336928;28;1818;-61
2022/05/20 23:33:20;;;;;;;;;;;;;;;24.66;43.94;95950.72;10343501;28;1840;-61
2022/05/20 23:38:21;;;;;;;;;;;;;;;24.69;43.70;95942.16;10352622;28;1946;-61
2022/05/20 23:43:22;;;;;;;;;;;;;;;24.70;44.04;95993.31;10355714;28;1777;-61
2022/05/20 23:48:22;;;;;;;;;;;;;;;24.75;44.26;95948.19;10350420;28;1815;-62
2022/05/20 23:53:23;;;;;;;;;;;;;;;24.76;44.39;95937.28;10351212;28;1832;-60
2022/05/20 23:58:24;;;;;;;;;;;;;;;24.76;44.68;95955.06;10336431;28;1913;-61
